Página principal
METAR-TAF:

METAR-TAF

Aeroportos :

Gran Canária, Espanha

Aeroporto de Gran Canária

latitude: 27-56N, longitude: 015-23W, altura: 23 m

Observação actual do tempo

O boletim foi feito há 13 minutos, às 07:00 UTC
Vento 11 kt de norte
Temperatura 15°C
Humidade 72%
Pressão 1020 hPa
Visibilidade 10 km ou mais
Poucas nuvensa uma altura de 2500 ft

METAR: GCLP 180700Z 35011KT 9999 FEW025 15/10 Q1020 NOSIG

Hora: 07:13 (07:13 UTC)

Previsão

O boletim foi feito há 5 horas e 13 minutos, às 02:00 UTC
Previsão válida de 18 às 03 UTC a 19 às 03 UTC
Vento 18 kt de nor-noroeste
Visibilidade 10 km ou mais
Nuvens dispersasa uma altura de 2500 ft
Tornando-se
de 18 às 09 UTC a 18 às 11 UTC
Vento 20 kt de nor-nordeste
Tornando-se
de 18 às 18 UTC a 18 às 20 UTC
Vento 18 kt de nor-noroeste

TAF: GCLP 180200Z 1803/1903 33018KT 9999 SCT025 TX20/1815Z TN14/1806Z BECMG 1809/1811 03020KT BECMG 1818/1820 33018KT

Observações e previsões do tempo de mais de 4000 aeroportos (mensagens METAR e TAF).

As estações disponíveis são os pontos amarelos e vermelhos sobre o mapa.

Mova o rato sobre o mapa para ver o nome da estação.

Depois clique no ponto para visualizar as observações e previsões meteorológicas.

Para alterar o mapa : clique nos botões verdes com uma cruz preta para aumentar o zoom; no botão verde com uma pitada de zoom; ou nas setas verdes para mapas adjacentes.


METAR-TAF: